createdAt,value
2023-05-22T00:03:38.000Z,15.16
2023-05-22T00:08:33.000Z,15.12
2023-05-22T00:13:28.000Z,15.03
2023-05-22T00:18:21.000Z,14.93
2023-05-22T00:23:16.000Z,14.87
2023-05-22T00:28:10.000Z,14.81
2023-05-22T00:33:04.000Z,14.7
2023-05-22T00:38:00.000Z,14.65
2023-05-22T00:42:53.000Z,14.59
2023-05-22T00:47:47.000Z,14.59
2023-05-22T00:52:41.000Z,14.54
2023-05-22T00:57:37.000Z,14.48
2023-05-22T01:02:29.000Z,14.47
2023-05-22T01:07:24.000Z,14.47
2023-05-22T01:12:18.000Z,14.36
2023-05-22T01:17:13.000Z,14.24
2023-05-22T01:22:07.000Z,14.2
2023-05-22T01:27:01.000Z,14.12
2023-05-22T01:31:56.000Z,14.12
2023-05-22T01:36:50.000Z,14.05
2023-05-22T01:41:44.000Z,13.97
2023-05-22T01:46:39.000Z,14.1
2023-05-22T01:51:33.000Z,14.09
2023-05-22T01:56:28.000Z,14.04
2023-05-22T02:01:22.000Z,14
2023-05-22T02:06:16.000Z,13.9
2023-05-22T02:11:10.000Z,13.79
2023-05-22T02:16:04.000Z,13.66
2023-05-22T02:20:59.000Z,13.59
2023-05-22T02:25:52.000Z,13.55
2023-05-22T02:30:47.000Z,13.63
2023-05-22T02:35:41.000Z,13.61
2023-05-22T02:40:35.000Z,13.57
2023-05-22T02:45:30.000Z,13.48
2023-05-22T02:50:24.000Z,13.46
2023-05-22T02:55:18.000Z,13.36
2023-05-22T03:00:13.000Z,13.31
2023-05-22T03:05:07.000Z,13.27
2023-05-22T03:10:02.000Z,13.23
2023-05-22T03:14:56.000Z,13.15
2023-05-22T03:19:51.000Z,13.05
2023-05-22T03:24:44.000Z,13.04
2023-05-22T03:29:39.000Z,13.07
2023-05-22T03:34:33.000Z,13.09
2023-05-22T03:39:28.000Z,13.06
2023-05-22T03:44:22.000Z,13.03
2023-05-22T03:49:17.000Z,13.02
2023-05-22T03:54:11.000Z,12.96
2023-05-22T03:59:04.000Z,13.01
2023-05-22T04:03:58.000Z,13
2023-05-22T04:08:53.000Z,13.05
2023-05-22T04:13:47.000Z,13.11
2023-05-22T04:18:41.000Z,13.12
2023-05-22T04:23:33.000Z,13.16
2023-05-22T04:28:28.000Z,13.2
2023-05-22T04:33:23.000Z,13.19
2023-05-22T04:38:15.000Z,13.31
2023-05-22T04:43:09.000Z,13.43
2023-05-22T04:48:03.000Z,13.66
2023-05-22T04:52:58.000Z,13.76
2023-05-22T04:57:52.000Z,13.85
2023-05-22T05:02:47.000Z,14.06
2023-05-22T05:07:41.000Z,14.31
2023-05-22T05:12:36.000Z,14.52
2023-05-22T05:17:31.000Z,14.76
2023-05-22T05:22:25.000Z,15.01
2023-05-22T05:27:19.000Z,15.15
2023-05-22T05:32:13.000Z,15.44
2023-05-22T05:37:08.000Z,15.48
2023-05-22T05:42:02.000Z,15.63
2023-05-22T05:46:57.000Z,15.75
2023-05-22T05:51:50.000Z,16.05
2023-05-22T05:56:44.000Z,16.22
2023-05-22T06:01:39.000Z,16.31
2023-05-22T06:06:34.000Z,16.38
2023-05-22T06:11:28.000Z,16.26
2023-05-22T06:16:23.000Z,16.21
2023-05-22T06:21:18.000Z,16.58
2023-05-22T06:26:12.000Z,16.39
2023-05-22T06:31:07.000Z,16.43
2023-05-22T06:36:01.000Z,16.52
2023-05-22T06:40:55.000Z,16.74
2023-05-22T06:45:49.000Z,16.71
2023-05-22T06:50:43.000Z,16.95
2023-05-22T06:55:38.000Z,17.14
2023-05-22T07:00:33.000Z,17.17
2023-05-22T07:05:27.000Z,17.17
2023-05-22T07:10:22.000Z,17.17
2023-05-22T07:15:16.000Z,17.15
2023-05-22T07:20:10.000Z,17.22
2023-05-22T07:25:05.000Z,16.94
2023-05-22T07:29:59.000Z,16.79
2023-05-22T07:34:54.000Z,16.47
2023-05-22T07:39:49.000Z,16.74
2023-05-22T07:44:43.000Z,16.57
2023-05-22T07:49:37.000Z,16.84
2023-05-22T07:54:31.000Z,16.72
2023-05-22T07:59:25.000Z,16.98
2023-05-22T08:04:20.000Z,17.35
2023-05-22T08:09:15.000Z,17.83
2023-05-22T08:14:09.000Z,17.65
2023-05-22T08:19:03.000Z,17.89
2023-05-22T08:23:59.000Z,18.55
2023-05-22T08:28:53.000Z,19.14
2023-05-22T08:33:48.000Z,19.41
2023-05-22T08:38:43.000Z,18.5
2023-05-22T08:43:37.000Z,20.35
2023-05-22T08:48:32.000Z,20.83
2023-05-22T08:53:27.000Z,21.46
2023-05-22T08:58:21.000Z,22.33
2023-05-22T09:03:16.000Z,21.85
2023-05-22T09:08:11.000Z,21.75
2023-05-22T09:13:06.000Z,22.04
2023-05-22T09:18:01.000Z,23
2023-05-22T09:22:56.000Z,21.85
2023-05-22T09:27:50.000Z,21.95
2023-05-22T09:32:44.000Z,22.7
2023-05-22T09:37:39.000Z,23.25
2023-05-22T09:42:33.000Z,23.57
2023-05-22T09:47:29.000Z,23.24
2023-05-22T09:52:23.000Z,23.96
2023-05-22T09:57:18.000Z,24.26
2023-05-22T10:02:13.000Z,23.74
2023-05-22T10:07:07.000Z,23.61
2023-05-22T10:12:02.000Z,24.73
2023-05-22T10:16:57.000Z,25.06
2023-05-22T10:21:51.000Z,25.96
2023-05-22T10:26:46.000Z,26.82
2023-05-22T10:31:41.000Z,28.13
2023-05-22T10:36:34.000Z,26.4
2023-05-22T10:41:28.000Z,26.85
2023-05-22T10:46:23.000Z,27.99
2023-05-22T10:51:18.000Z,28.96
2023-05-22T10:56:13.000Z,27.15
2023-05-22T11:01:07.000Z,28.38
2023-05-22T11:06:02.000Z,28.6
2023-05-22T11:10:58.000Z,28.72
2023-05-22T11:15:51.000Z,30.15
2023-05-22T11:20:46.000Z,30.7
2023-05-22T11:25:41.000Z,29.74
2023-05-22T11:30:36.000Z,29.81
2023-05-22T11:35:31.000Z,29.32
2023-05-22T11:40:26.000Z,30.32
2023-05-22T11:45:17.000Z,31.63
2023-05-22T11:50:12.000Z,31.63
2023-05-22T11:55:07.000Z,31.12
2023-05-22T12:00:01.000Z,29.13
2023-05-22T12:04:55.000Z,30.23
2023-05-22T12:09:49.000Z,30.03
2023-05-22T12:14:42.000Z,29.7
2023-05-22T12:19:34.000Z,27.64
2023-05-22T12:24:27.000Z,29.05
2023-05-22T12:29:20.000Z,29.82
2023-05-22T12:34:15.000Z,30.65
2023-05-22T12:39:10.000Z,29.81
2023-05-22T12:44:04.000Z,30.92
2023-05-22T12:48:59.000Z,31.57
2023-05-22T12:53:54.000Z,31.41
2023-05-22T12:58:48.000Z,30.99
2023-05-22T13:03:42.000Z,31.83
2023-05-22T13:08:37.000Z,31.85
2023-05-22T13:13:31.000Z,31.51
2023-05-22T13:18:26.000Z,31.76
2023-05-22T13:23:20.000Z,31.03
2023-05-22T13:28:12.000Z,30.77
2023-05-22T13:33:06.000Z,31.13
2023-05-22T13:38:00.000Z,32.3
2023-05-22T13:42:53.000Z,32.82
2023-05-22T13:47:48.000Z,32.79
2023-05-22T13:52:42.000Z,32.74
2023-05-22T13:57:36.000Z,31.69
2023-05-22T14:02:30.000Z,30.86
2023-05-22T14:07:24.000Z,30.84
2023-05-22T14:12:18.000Z,31.15
2023-05-22T14:17:13.000Z,30.69
2023-05-22T14:22:07.000Z,30.14
2023-05-22T14:27:01.000Z,29.56
2023-05-22T14:31:55.000Z,31
2023-05-22T14:36:49.000Z,30.71
2023-05-22T14:41:43.000Z,30.22
2023-05-22T14:46:37.000Z,30.67
2023-05-22T14:51:31.000Z,30.46
2023-05-22T14:56:26.000Z,30.47
2023-05-22T15:01:20.000Z,28.86
2023-05-22T15:06:13.000Z,27.45
2023-05-22T15:11:07.000Z,27.56
2023-05-22T15:16:00.000Z,27.3
2023-05-22T15:20:53.000Z,28.65
2023-05-22T15:25:48.000Z,27.25
2023-05-22T15:30:42.000Z,27.12
2023-05-22T15:35:36.000Z,26.1
2023-05-22T15:40:30.000Z,25.96
2023-05-22T15:45:22.000Z,24.9
2023-05-22T15:50:16.000Z,23.92
2023-05-22T15:55:10.000Z,24.23
2023-05-22T16:00:04.000Z,24.46
2023-05-22T16:04:58.000Z,24.54
2023-05-22T16:09:52.000Z,25
2023-05-22T16:14:46.000Z,25.8
2023-05-22T16:19:40.000Z,26.32
2023-05-22T16:24:35.000Z,25.39
2023-05-22T16:29:28.000Z,25.2
2023-05-22T16:34:23.000Z,24.85
2023-05-22T16:39:17.000Z,24.58
2023-05-22T16:44:12.000Z,24.9
2023-05-22T16:49:05.000Z,24.25
2023-05-22T16:54:00.000Z,23.98
2023-05-22T16:58:52.000Z,25.13
2023-05-22T17:03:46.000Z,26.17
2023-05-22T17:08:40.000Z,24.71
2023-05-22T17:13:35.000Z,23.79
2023-05-22T17:18:27.000Z,23.35
2023-05-22T17:23:21.000Z,22.74
2023-05-22T17:28:16.000Z,22.73
2023-05-22T17:33:10.000Z,22.92
2023-05-22T17:38:03.000Z,22.7
2023-05-22T17:42:57.000Z,22.6
2023-05-22T17:47:51.000Z,22.06
2023-05-22T17:52:45.000Z,21.87
2023-05-22T17:57:39.000Z,21.43
2023-05-22T18:02:33.000Z,21.27
2023-05-22T18:07:26.000Z,21.04
2023-05-22T18:12:20.000Z,20.81
2023-05-22T18:17:13.000Z,20.83
2023-05-22T18:22:08.000Z,20.63
2023-05-22T18:27:02.000Z,20.81
2023-05-22T18:31:55.000Z,20.78
2023-05-22T18:36:49.000Z,20.64
2023-05-22T18:41:42.000Z,20.59
2023-05-22T18:46:36.000Z,20.47
2023-05-22T18:51:30.000Z,20.35
2023-05-22T18:56:24.000Z,20.2
2023-05-22T19:01:17.000Z,20.04
2023-05-22T19:06:13.000Z,19.9
2023-05-22T19:11:06.000Z,19.75
2023-05-22T19:16:01.000Z,19.58
2023-05-22T19:20:55.000Z,19.51
2023-05-22T19:25:49.000Z,19.32
2023-05-22T19:30:41.000Z,19.04
2023-05-22T19:35:35.000Z,18.74
2023-05-22T19:40:30.000Z,18.84
2023-05-22T19:45:22.000Z,18.83
2023-05-22T19:50:16.000Z,18.68
2023-05-22T19:55:08.000Z,18.61
2023-05-22T20:00:02.000Z,18.63
2023-05-22T20:04:56.000Z,18.37
2023-05-22T20:09:51.000Z,18.22
2023-05-22T20:14:45.000Z,18.14
2023-05-22T20:19:38.000Z,18.22
2023-05-22T20:24:33.000Z,18.25
2023-05-22T20:29:26.000Z,18.18
2023-05-22T20:34:20.000Z,18.01
2023-05-22T20:39:14.000Z,17.97
2023-05-22T20:44:08.000Z,17.91
2023-05-22T20:49:03.000Z,17.79
2023-05-22T20:53:56.000Z,17.77
2023-05-22T20:58:51.000Z,17.75
2023-05-22T21:03:45.000Z,17.76
2023-05-22T21:08:39.000Z,17.69
2023-05-22T21:13:32.000Z,17.56
2023-05-22T21:18:26.000Z,17.51
2023-05-22T21:23:19.000Z,17.34
2023-05-22T21:28:13.000Z,17.34
2023-05-22T21:33:08.000Z,17.29
2023-05-22T21:38:01.000Z,17.19
2023-05-22T21:42:56.000Z,17.14
2023-05-22T21:47:50.000Z,17.1
2023-05-22T21:52:44.000Z,17.05
2023-05-22T21:57:38.000Z,17.09
2023-05-22T22:02:29.000Z,17.04
2023-05-22T22:07:24.000Z,17.04
2023-05-22T22:12:16.000Z,16.93
2023-05-22T22:17:10.000Z,16.81
2023-05-22T22:22:04.000Z,16.76
2023-05-22T22:26:59.000Z,16.67
2023-05-22T22:31:53.000Z,16.58
2023-05-22T22:36:45.000Z,16.49
2023-05-22T22:41:39.000Z,16.51
2023-05-22T22:46:33.000Z,16.49
2023-05-22T22:51:27.000Z,16.52
2023-05-22T22:56:21.000Z,16.42
2023-05-22T23:01:15.000Z,16.36
2023-05-22T23:06:11.000Z,16.39
2023-05-22T23:11:03.000Z,16.48
2023-05-22T23:15:56.000Z,16.53
2023-05-22T23:20:50.000Z,16.47
2023-05-22T23:25:43.000Z,16.52
2023-05-22T23:30:37.000Z,16.56
2023-05-22T23:35:31.000Z,16.5
2023-05-22T23:40:25.000Z,16.39
2023-05-22T23:45:19.000Z,16.31
2023-05-22T23:50:13.000Z,16.15
2023-05-22T23:55:05.000Z,16.01
